sensor_id;sensor_type;location;lat;lon;timestamp;P1;durP1;ratioP1;P2;durP2;ratioP2
60372;SDS011;46216;52.220;5.134;2022-12-20T00:01:07;5.00;;;3.63;;
60372;SDS011;46216;52.220;5.134;2022-12-20T00:03:33;9.05;;;3.75;;
60372;SDS011;46216;52.220;5.134;2022-12-20T00:05:59;6.00;;;4.28;;
60372;SDS011;46216;52.220;5.134;2022-12-20T00:08:24;7.65;;;3.80;;
60372;SDS011;46216;52.220;5.134;2022-12-20T00:10:49;6.38;;;3.80;;
60372;SDS011;46216;52.220;5.134;2022-12-20T00:13:15;6.22;;;3.97;;
60372;SDS011;46216;52.220;5.134;2022-12-20T00:15:40;6.18;;;3.67;;
60372;SDS011;46216;52.220;5.134;2022-12-20T00:18:05;6.40;;;3.90;;
60372;SDS011;46216;52.220;5.134;2022-12-20T00:20:31;7.15;;;4.00;;
60372;SDS011;46216;52.220;5.134;2022-12-20T00:22:56;6.60;;;3.60;;
60372;SDS011;46216;52.220;5.134;2022-12-20T00:25:22;7.10;;;3.50;;
60372;SDS011;46216;52.220;5.134;2022-12-20T00:27:48;6.40;;;3.42;;
60372;SDS011;46216;52.220;5.134;2022-12-20T00:30:14;5.43;;;3.53;;
60372;SDS011;46216;52.220;5.134;2022-12-20T00:32:40;5.05;;;3.55;;
60372;SDS011;46216;52.220;5.134;2022-12-20T00:35:06;6.00;;;3.75;;
60372;SDS011;46216;52.220;5.134;2022-12-20T00:37:31;5.32;;;3.35;;
60372;SDS011;46216;52.220;5.134;2022-12-20T00:39:58;5.18;;;3.80;;
60372;SDS011;46216;52.220;5.134;2022-12-20T00:42:23;4.47;;;3.13;;
60372;SDS011;46216;52.220;5.134;2022-12-20T00:44:48;6.05;;;3.38;;
60372;SDS011;46216;52.220;5.134;2022-12-20T00:47:14;6.20;;;3.72;;
60372;SDS011;46216;52.220;5.134;2022-12-20T00:49:39;6.20;;;3.30;;
60372;SDS011;46216;52.220;5.134;2022-12-20T00:52:05;5.03;;;3.40;;
60372;SDS011;46216;52.220;5.134;2022-12-20T00:54:31;5.82;;;3.53;;
60372;SDS011;46216;52.220;5.134;2022-12-20T00:56:56;5.95;;;3.28;;
60372;SDS011;46216;52.220;5.134;2022-12-20T00:59:21;6.82;;;2.97;;
60372;SDS011;46216;52.220;5.134;2022-12-20T01:01:46;5.85;;;3.40;;
60372;SDS011;46216;52.220;5.134;2022-12-20T01:04:12;5.93;;;3.53;;
60372;SDS011;46216;52.220;5.134;2022-12-20T01:06:37;5.72;;;3.40;;
60372;SDS011;46216;52.220;5.134;2022-12-20T01:09:03;4.85;;;3.25;;
60372;SDS011;46216;52.220;5.134;2022-12-20T01:11:31;4.90;;;3.30;;
60372;SDS011;46216;52.220;5.134;2022-12-20T01:13:59;4.95;;;3.42;;
60372;SDS011;46216;52.220;5.134;2022-12-20T01:16:36;4.82;;;3.30;;
60372;SDS011;46216;52.220;5.134;2022-12-20T01:19:04;6.80;;;3.60;;
60372;SDS011;46216;52.220;5.134;2022-12-20T01:21:30;6.10;;;3.72;;
60372;SDS011;46216;52.220;5.134;2022-12-20T01:23:55;5.85;;;3.63;;
60372;SDS011;46216;52.220;5.134;2022-12-20T01:26:22;6.35;;;3.60;;
60372;SDS011;46216;52.220;5.134;2022-12-20T01:28:51;7.40;;;3.50;;
60372;SDS011;46216;52.220;5.134;2022-12-20T01:31:18;6.43;;;3.83;;
60372;SDS011;46216;52.220;5.134;2022-12-20T01:33:45;4.68;;;3.42;;
60372;SDS011;46216;52.220;5.134;2022-12-20T01:36:16;3.92;;;3.25;;
60372;SDS011;46216;52.220;5.134;2022-12-20T01:38:43;5.53;;;3.78;;
60372;SDS011;46216;52.220;5.134;2022-12-20T01:41:16;6.18;;;4.07;;
60372;SDS011;46216;52.220;5.134;2022-12-20T01:43:50;7.00;;;3.75;;
60372;SDS011;46216;52.220;5.134;2022-12-20T01:46:18;6.15;;;4.05;;
60372;SDS011;46216;52.220;5.134;2022-12-20T01:48:52;6.07;;;3.85;;
60372;SDS011;46216;52.220;5.134;2022-12-20T01:51:23;5.75;;;3.58;;
60372;SDS011;46216;52.220;5.134;2022-12-20T01:53:51;8.02;;;4.13;;
60372;SDS011;46216;52.220;5.134;2022-12-20T01:56:24;7.00;;;4.00;;
60372;SDS011;46216;52.220;5.134;2022-12-20T01:58:49;4.38;;;3.45;;
60372;SDS011;46216;52.220;5.134;2022-12-20T02:01:17;7.03;;;3.97;;
60372;SDS011;46216;52.220;5.134;2022-12-20T02:03:44;5.95;;;3.40;;
60372;SDS011;46216;52.220;5.134;2022-12-20T02:06:18;6.47;;;3.83;;
60372;SDS011;46216;52.220;5.134;2022-12-20T02:08:45;6.70;;;4.03;;
60372;SDS011;46216;52.220;5.134;2022-12-20T02:16:35;6.28;;;4.32;;
60372;SDS011;46216;52.220;5.134;2022-12-20T02:19:22;6.10;;;3.20;;
60372;SDS011;46216;52.220;5.134;2022-12-20T02:22:28;6.60;;;4.10;;
60372;SDS011;46216;52.220;5.134;2022-12-20T02:28:07;6.10;;;4.00;;
60372;SDS011;46216;52.220;5.134;2022-12-20T02:30:47;5.43;;;4.03;;
60372;SDS011;46216;52.220;5.134;2022-12-20T02:33:16;5.78;;;3.90;;
60372;SDS011;46216;52.220;5.134;2022-12-20T02:35:44;7.20;;;3.88;;
60372;SDS011;46216;52.220;5.134;2022-12-20T02:38:26;4.88;;;3.58;;
60372;SDS011;46216;52.220;5.134;2022-12-20T02:41:07;5.53;;;3.95;;
60372;SDS011;46216;52.220;5.134;2022-12-20T02:43:34;3.75;;;3.30;;
60372;SDS011;46216;52.220;5.134;2022-12-20T02:46:23;4.57;;;3.63;;
60372;SDS011;46216;52.220;5.134;2022-12-20T02:48:50;5.85;;;3.75;;
60372;SDS011;46216;52.220;5.134;2022-12-20T02:51:17;6.80;;;4.13;;
60372;SDS011;46216;52.220;5.134;2022-12-20T02:53:46;5.57;;;4.10;;
60372;SDS011;46216;52.220;5.134;2022-12-20T02:58:56;6.20;;;4.13;;
60372;SDS011;46216;52.220;5.134;2022-12-20T03:01:33;5.43;;;3.60;;
60372;SDS011;46216;52.220;5.134;2022-12-20T03:04:03;4.93;;;3.95;;
60372;SDS011;46216;52.220;5.134;2022-12-20T03:06:29;6.53;;;4.20;;
60372;SDS011;46216;52.220;5.134;2022-12-20T03:08:54;9.27;;;4.30;;
60372;SDS011;46216;52.220;5.134;2022-12-20T03:11:20;6.38;;;3.72;;
60372;SDS011;46216;52.220;5.134;2022-12-20T03:13:45;4.95;;;3.70;;
60372;SDS011;46216;52.220;5.134;2022-12-20T03:16:10;5.00;;;3.47;;
60372;SDS011;46216;52.220;5.134;2022-12-20T03:18:36;5.20;;;3.58;;
60372;SDS011;46216;52.220;5.134;2022-12-20T03:21:02;5.28;;;3.38;;
60372;SDS011;46216;52.220;5.134;2022-12-20T03:23:27;4.47;;;3.70;;
60372;SDS011;46216;52.220;5.134;2022-12-20T03:25:53;6.78;;;3.63;;
60372;SDS011;46216;52.220;5.134;2022-12-20T03:28:18;5.03;;;3.58;;
60372;SDS011;46216;52.220;5.134;2022-12-20T03:30:43;6.78;;;3.72;;
60372;SDS011;46216;52.220;5.134;2022-12-20T03:33:10;5.90;;;3.45;;
60372;SDS011;46216;52.220;5.134;2022-12-20T03:35:35;5.20;;;3.67;;
60372;SDS011;46216;52.220;5.134;2022-12-20T03:38:00;5.88;;;3.80;;
60372;SDS011;46216;52.220;5.134;2022-12-20T03:40:26;8.70;;;3.75;;
60372;SDS011;46216;52.220;5.134;2022-12-20T03:42:51;5.90;;;3.92;;
60372;SDS011;46216;52.220;5.134;2022-12-20T03:45:16;4.75;;;3.38;;
60372;SDS011;46216;52.220;5.134;2022-12-20T03:47:41;5.38;;;3.42;;
60372;SDS011;46216;52.220;5.134;2022-12-20T03:50:07;5.35;;;3.60;;
60372;SDS011;46216;52.220;5.134;2022-12-20T03:52:34;5.78;;;3.53;;
60372;SDS011;46216;52.220;5.134;2022-12-20T03:55:00;4.78;;;3.25;;
60372;SDS011;46216;52.220;5.134;2022-12-20T03:57:25;4.70;;;3.50;;
60372;SDS011;46216;52.220;5.134;2022-12-20T03:59:50;4.88;;;3.70;;
60372;SDS011;46216;52.220;5.134;2022-12-20T04:02:18;6.55;;;3.55;;
60372;SDS011;46216;52.220;5.134;2022-12-20T04:04:43;5.38;;;3.42;;
60372;SDS011;46216;52.220;5.134;2022-12-20T04:07:09;4.25;;;3.50;;
60372;SDS011;46216;52.220;5.134;2022-12-20T04:09:34;5.50;;;3.40;;
60372;SDS011;46216;52.220;5.134;2022-12-20T04:11:59;5.40;;;3.45;;
60372;SDS011;46216;52.220;5.134;2022-12-20T04:14:25;4.45;;;3.42;;
60372;SDS011;46216;52.220;5.134;2022-12-20T04:16:50;5.00;;;3.20;;
60372;SDS011;46216;52.220;5.134;2022-12-20T04:19:15;4.95;;;3.35;;
60372;SDS011;46216;52.220;5.134;2022-12-20T04:21:41;3.92;;;3.17;;
60372;SDS011;46216;52.220;5.134;2022-12-20T04:24:06;7.70;;;3.65;;
60372;SDS011;46216;52.220;5.134;2022-12-20T04:26:32;3.85;;;3.38;;
60372;SDS011;46216;52.220;5.134;2022-12-20T04:28:58;4.40;;;3.30;;
60372;SDS011;46216;52.220;5.134;2022-12-20T04:31:23;4.85;;;3.05;;
60372;SDS011;46216;52.220;5.134;2022-12-20T04:33:48;5.10;;;3.20;;
60372;SDS011;46216;52.220;5.134;2022-12-20T04:36:14;5.53;;;3.10;;
60372;SDS011;46216;52.220;5.134;2022-12-20T04:38:40;5.20;;;3.35;;
60372;SDS011;46216;52.220;5.134;2022-12-20T04:41:05;4.70;;;3.15;;
60372;SDS011;46216;52.220;5.134;2022-12-20T04:43:31;3.97;;;3.08;;
60372;SDS011;46216;52.220;5.134;2022-12-20T04:45:56;5.97;;;3.10;;
60372;SDS011;46216;52.220;5.134;2022-12-20T04:48:22;5.85;;;3.10;;
60372;SDS011;46216;52.220;5.134;2022-12-20T04:50:53;5.60;;;3.30;;
60372;SDS011;46216;52.220;5.134;2022-12-20T04:53:19;4.60;;;3.08;;
60372;SDS011;46216;52.220;5.134;2022-12-20T04:56:03;4.28;;;3.10;;
60372;SDS011;46216;52.220;5.134;2022-12-20T04:58:29;5.22;;;3.25;;
60372;SDS011;46216;52.220;5.134;2022-12-20T05:00:55;3.72;;;3.00;;
60372;SDS011;46216;52.220;5.134;2022-12-20T05:03:20;6.60;;;3.45;;
60372;SDS011;46216;52.220;5.134;2022-12-20T05:05:47;8.80;;;3.47;;
60372;SDS011;46216;52.220;5.134;2022-12-20T05:08:12;6.97;;;3.65;;
60372;SDS011;46216;52.220;5.134;2022-12-20T05:10:38;7.60;;;4.13;;
60372;SDS011;46216;52.220;5.134;2022-12-20T05:13:03;5.43;;;3.72;;
60372;SDS011;46216;52.220;5.134;2022-12-20T05:15:29;5.90;;;3.88;;
60372;SDS011;46216;52.220;5.134;2022-12-20T05:17:54;7.00;;;3.97;;
60372;SDS011;46216;52.220;5.134;2022-12-20T05:20:27;6.47;;;4.07;;
60372;SDS011;46216;52.220;5.134;2022-12-20T05:22:54;4.80;;;3.95;;
60372;SDS011;46216;52.220;5.134;2022-12-20T05:25:39;5.80;;;3.88;;
60372;SDS011;46216;52.220;5.134;2022-12-20T05:28:34;5.30;;;3.90;;
60372;SDS011;46216;52.220;5.134;2022-12-20T05:31:00;6.00;;;3.95;;
60372;SDS011;46216;52.220;5.134;2022-12-20T05:33:26;6.65;;;4.40;;
60372;SDS011;46216;52.220;5.134;2022-12-20T05:35:53;5.03;;;3.90;;
60372;SDS011;46216;52.220;5.134;2022-12-20T05:38:19;5.68;;;4.35;;
60372;SDS011;46216;52.220;5.134;2022-12-20T05:40:45;6.07;;;4.25;;
60372;SDS011;46216;52.220;5.134;2022-12-20T05:43:12;5.65;;;4.00;;
60372;SDS011;46216;52.220;5.134;2022-12-20T05:45:37;6.45;;;3.78;;
60372;SDS011;46216;52.220;5.134;2022-12-20T05:48:02;5.32;;;3.78;;
60372;SDS011;46216;52.220;5.134;2022-12-20T05:50:28;6.13;;;3.90;;
60372;SDS011;46216;52.220;5.134;2022-12-20T05:52:53;5.00;;;3.72;;
60372;SDS011;46216;52.220;5.134;2022-12-20T05:55:18;7.05;;;4.18;;
60372;SDS011;46216;52.220;5.134;2022-12-20T05:57:44;6.65;;;3.85;;
60372;SDS011;46216;52.220;5.134;2022-12-20T06:00:10;5.22;;;3.50;;
60372;SDS011;46216;52.220;5.134;2022-12-20T06:02:36;5.18;;;3.92;;
60372;SDS011;46216;52.220;5.134;2022-12-20T06:05:01;5.93;;;3.80;;
60372;SDS011;46216;52.220;5.134;2022-12-20T06:07:26;5.15;;;3.47;;
60372;SDS011;46216;52.220;5.134;2022-12-20T06:09:55;5.57;;;3.88;;
60372;SDS011;46216;52.220;5.134;2022-12-20T06:12:21;6.97;;;3.58;;
60372;SDS011;46216;52.220;5.134;2022-12-20T06:14:48;5.78;;;3.28;;
60372;SDS011;46216;52.220;5.134;2022-12-20T06:17:13;4.30;;;3.22;;
60372;SDS011;46216;52.220;5.134;2022-12-20T06:19:38;4.95;;;3.55;;
60372;SDS011;46216;52.220;5.134;2022-12-20T06:22:05;5.45;;;3.30;;
60372;SDS011;46216;52.220;5.134;2022-12-20T06:24:32;5.97;;;3.20;;
60372;SDS011;46216;52.220;5.134;2022-12-20T06:27:01;6.88;;;3.53;;
60372;SDS011;46216;52.220;5.134;2022-12-20T06:29:27;4.88;;;3.13;;
60372;SDS011;46216;52.220;5.134;2022-12-20T06:31:53;3.40;;;3.03;;
60372;SDS011;46216;52.220;5.134;2022-12-20T06:34:18;7.63;;;3.50;;
60372;SDS011;46216;52.220;5.134;2022-12-20T06:36:44;5.78;;;3.28;;
60372;SDS011;46216;52.220;5.134;2022-12-20T06:39:10;5.22;;;3.30;;
60372;SDS011;46216;52.220;5.134;2022-12-20T06:41:35;5.07;;;3.35;;
60372;SDS011;46216;52.220;5.134;2022-12-20T06:44:01;5.15;;;2.95;;
60372;SDS011;46216;52.220;5.134;2022-12-20T06:46:26;5.47;;;3.15;;
60372;SDS011;46216;52.220;5.134;2022-12-20T06:48:52;6.38;;;3.30;;
60372;SDS011;46216;52.220;5.134;2022-12-20T06:51:19;5.65;;;3.15;;
60372;SDS011;46216;52.220;5.134;2022-12-20T06:53:45;4.72;;;3.13;;
60372;SDS011;46216;52.220;5.134;2022-12-20T06:56:10;4.47;;;2.95;;
60372;SDS011;46216;52.220;5.134;2022-12-20T06:58:35;6.03;;;2.78;;
60372;SDS011;46216;52.220;5.134;2022-12-20T07:01:01;5.35;;;3.05;;
60372;SDS011;46216;52.220;5.134;2022-12-20T07:03:26;4.28;;;2.80;;
60372;SDS011;46216;52.220;5.134;2022-12-20T07:05:52;6.18;;;3.33;;
60372;SDS011;46216;52.220;5.134;2022-12-20T07:08:18;4.00;;;2.70;;
60372;SDS011;46216;52.220;5.134;2022-12-20T07:10:44;4.95;;;2.78;;
60372;SDS011;46216;52.220;5.134;2022-12-20T07:13:10;4.40;;;2.40;;
60372;SDS011;46216;52.220;5.134;2022-12-20T07:15:35;4.68;;;2.80;;
60372;SDS011;46216;52.220;5.134;2022-12-20T07:18:01;4.45;;;2.70;;
60372;SDS011;46216;52.220;5.134;2022-12-20T07:20:27;3.80;;;2.42;;
60372;SDS011;46216;52.220;5.134;2022-12-20T07:22:52;3.75;;;2.50;;
60372;SDS011;46216;52.220;5.134;2022-12-20T07:25:18;5.45;;;2.80;;
60372;SDS011;46216;52.220;5.134;2022-12-20T07:27:45;5.63;;;2.85;;
60372;SDS011;46216;52.220;5.134;2022-12-20T07:30:12;4.80;;;2.83;;
60372;SDS011;46216;52.220;5.134;2022-12-20T07:32:38;3.33;;;2.50;;
60372;SDS011;46216;52.220;5.134;2022-12-20T07:35:08;3.78;;;2.58;;
60372;SDS011;46216;52.220;5.134;2022-12-20T07:37:34;5.15;;;2.60;;
60372;SDS011;46216;52.220;5.134;2022-12-20T07:40:00;3.83;;;2.55;;
60372;SDS011;46216;52.220;5.134;2022-12-20T07:42:25;4.20;;;2.40;;
60372;SDS011;46216;52.220;5.134;2022-12-20T07:44:50;5.22;;;2.80;;
60372;SDS011;46216;52.220;5.134;2022-12-20T07:47:16;5.70;;;2.75;;
60372;SDS011;46216;52.220;5.134;2022-12-20T07:49:41;3.97;;;2.30;;
60372;SDS011;46216;52.220;5.134;2022-12-20T07:52:06;4.72;;;2.72;;
60372;SDS011;46216;52.220;5.134;2022-12-20T07:54:34;4.30;;;2.55;;
60372;SDS011;46216;52.220;5.134;2022-12-20T07:57:04;6.13;;;2.70;;
60372;SDS011;46216;52.220;5.134;2022-12-20T07:59:41;4.18;;;2.40;;
60372;SDS011;46216;52.220;5.134;2022-12-20T08:02:11;4.40;;;2.67;;
60372;SDS011;46216;52.220;5.134;2022-12-20T08:04:41;4.65;;;2.50;;
60372;SDS011;46216;52.220;5.134;2022-12-20T08:07:07;6.78;;;2.58;;
60372;SDS011;46216;52.220;5.134;2022-12-20T08:09:35;4.40;;;2.75;;
60372;SDS011;46216;52.220;5.134;2022-12-20T08:12:04;5.07;;;3.05;;
60372;SDS011;46216;52.220;5.134;2022-12-20T08:14:32;3.85;;;2.67;;
60372;SDS011;46216;52.220;5.134;2022-12-20T08:16:58;5.50;;;2.92;;
60372;SDS011;46216;52.220;5.134;2022-12-20T08:19:23;4.57;;;2.78;;
60372;SDS011;46216;52.220;5.134;2022-12-20T08:21:48;5.65;;;2.90;;
60372;SDS011;46216;52.220;5.134;2022-12-20T08:24:14;7.25;;;3.10;;
60372;SDS011;46216;52.220;5.134;2022-12-20T08:26:40;5.10;;;3.55;;
60372;SDS011;46216;52.220;5.134;2022-12-20T08:29:06;4.28;;;3.20;;
60372;SDS011;46216;52.220;5.134;2022-12-20T08:31:35;4.90;;;3.30;;
60372;SDS011;46216;52.220;5.134;2022-12-20T08:34:01;6.75;;;3.25;;
60372;SDS011;46216;52.220;5.134;2022-12-20T08:36:27;5.75;;;3.00;;
60372;SDS011;46216;52.220;5.134;2022-12-20T08:38:52;6.30;;;3.00;;
60372;SDS011;46216;52.220;5.134;2022-12-20T08:41:17;5.28;;;2.92;;
60372;SDS011;46216;52.220;5.134;2022-12-20T08:43:43;6.60;;;3.00;;
60372;SDS011;46216;52.220;5.134;2022-12-20T08:46:08;4.78;;;2.90;;
60372;SDS011;46216;52.220;5.134;2022-12-20T08:48:35;7.40;;;3.10;;
60372;SDS011;46216;52.220;5.134;2022-12-20T08:51:01;3.60;;;2.90;;
60372;SDS011;46216;52.220;5.134;2022-12-20T08:53:29;4.15;;;2.80;;
60372;SDS011;46216;52.220;5.134;2022-12-20T08:56:02;5.80;;;2.90;;
60372;SDS011;46216;52.220;5.134;2022-12-20T08:58:35;4.38;;;3.00;;
60372;SDS011;46216;52.220;5.134;2022-12-20T09:01:03;4.20;;;2.70;;
60372;SDS011;46216;52.220;5.134;2022-12-20T09:03:30;7.22;;;3.20;;
60372;SDS011;46216;52.220;5.134;2022-12-20T09:05:56;5.05;;;2.80;;
60372;SDS011;46216;52.220;5.134;2022-12-20T09:08:22;3.63;;;2.75;;
60372;SDS011;46216;52.220;5.134;2022-12-20T09:10:48;4.40;;;2.85;;
60372;SDS011;46216;52.220;5.134;2022-12-20T09:13:14;4.85;;;3.10;;
60372;SDS011;46216;52.220;5.134;2022-12-20T09:15:39;4.95;;;2.92;;
60372;SDS011;46216;52.220;5.134;2022-12-20T09:18:06;6.95;;;3.17;;
60372;SDS011;46216;52.220;5.134;2022-12-20T09:20:31;6.28;;;3.30;;
60372;SDS011;46216;52.220;5.134;2022-12-20T09:22:57;5.20;;;3.00;;
60372;SDS011;46216;52.220;5.134;2022-12-20T09:25:24;7.00;;;3.30;;
60372;SDS011;46216;52.220;5.134;2022-12-20T09:27:50;7.15;;;3.33;;
60372;SDS011;46216;52.220;5.134;2022-12-20T09:30:15;8.20;;;3.70;;
60372;SDS011;46216;52.220;5.134;2022-12-20T09:32:41;6.00;;;3.30;;
60372;SDS011;46216;52.220;5.134;2022-12-20T09:35:06;4.13;;;3.10;;
60372;SDS011;46216;52.220;5.134;2022-12-20T09:37:32;6.72;;;3.50;;
60372;SDS011;46216;52.220;5.134;2022-12-20T09:39:57;9.50;;;3.58;;
60372;SDS011;46216;52.220;5.134;2022-12-20T09:42:26;6.68;;;3.67;;
60372;SDS011;46216;52.220;5.134;2022-12-20T09:44:56;7.00;;;3.88;;
60372;SDS011;46216;52.220;5.134;2022-12-20T09:47:29;8.45;;;3.70;;
60372;SDS011;46216;52.220;5.134;2022-12-20T09:49:58;5.63;;;3.67;;
60372;SDS011;46216;52.220;5.134;2022-12-20T10:00:01;7.78;;;4.07;;
60372;SDS011;46216;52.220;5.134;2022-12-20T10:02:28;10.43;;;4.18;;
60372;SDS011;46216;52.220;5.134;2022-12-20T10:04:54;7.78;;;4.03;;
60372;SDS011;46216;52.220;5.134;2022-12-20T10:07:34;7.10;;;3.90;;
60372;SDS011;46216;52.220;5.134;2022-12-20T10:12:46;8.80;;;4.10;;
60372;SDS011;46216;52.220;5.134;2022-12-20T10:20:45;6.13;;;3.90;;
60372;SDS011;46216;52.220;5.134;2022-12-20T10:23:21;6.78;;;4.03;;
60372;SDS011;46216;52.220;5.134;2022-12-20T10:25:53;7.65;;;4.43;;
60372;SDS011;46216;52.220;5.134;2022-12-20T10:28:30;8.98;;;4.60;;
60372;SDS011;46216;52.220;5.134;2022-12-20T10:31:04;7.00;;;4.63;;
60372;SDS011;46216;52.220;5.134;2022-12-20T10:33:32;9.23;;;4.60;;
60372;SDS011;46216;52.220;5.134;2022-12-20T10:36:17;10.13;;;4.93;;
60372;SDS011;46216;52.220;5.134;2022-12-20T10:38:46;8.68;;;4.63;;
60372;SDS011;46216;52.220;5.134;2022-12-20T10:41:17;8.20;;;4.60;;
60372;SDS011;46216;52.220;5.134;2022-12-20T10:43:46;6.20;;;4.93;;
60372;SDS011;46216;52.220;5.134;2022-12-20T10:46:15;7.00;;;4.57;;
60372;SDS011;46216;52.220;5.134;2022-12-20T10:48:41;7.45;;;4.60;;
60372;SDS011;46216;52.220;5.134;2022-12-20T10:53:49;7.10;;;4.43;;
60372;SDS011;46216;52.220;5.134;2022-12-20T10:56:32;8.02;;;4.88;;
60372;SDS011;46216;52.220;5.134;2022-12-20T10:59:01;8.25;;;5.13;;
60372;SDS011;46216;52.220;5.134;2022-12-20T11:01:47;6.68;;;4.50;;
60372;SDS011;46216;52.220;5.134;2022-12-20T11:04:31;9.48;;;5.25;;
60372;SDS011;46216;52.220;5.134;2022-12-20T11:07:00;8.55;;;4.32;;
60372;SDS011;46216;52.220;5.134;2022-12-20T11:09:29;7.45;;;5.05;;
60372;SDS011;46216;52.220;5.134;2022-12-20T11:12:04;8.82;;;4.72;;
60372;SDS011;46216;52.220;5.134;2022-12-20T11:14:43;7.22;;;5.30;;
60372;SDS011;46216;52.220;5.134;2022-12-20T11:17:21;7.32;;;5.22;;
60372;SDS011;46216;52.220;5.134;2022-12-20T11:19:59;8.77;;;5.57;;
60372;SDS011;46216;52.220;5.134;2022-12-20T11:22:42;8.32;;;4.93;;
60372;SDS011;46216;52.220;5.134;2022-12-20T11:36:53;10.05;;;5.68;;
60372;SDS011;46216;52.220;5.134;2022-12-20T11:45:12;7.82;;;6.05;;
60372;SDS011;46216;52.220;5.134;2022-12-20T11:47:49;7.43;;;5.80;;
60372;SDS011;46216;52.220;5.134;2022-12-20T11:53:22;8.48;;;6.55;;
60372;SDS011;46216;52.220;5.134;2022-12-20T11:55:51;8.23;;;6.13;;
60372;SDS011;46216;52.220;5.134;2022-12-20T11:58:32;11.02;;;6.70;;
60372;SDS011;46216;52.220;5.134;2022-12-20T12:01:14;10.32;;;6.60;;
60372;SDS011;46216;52.220;5.134;2022-12-20T12:03:44;11.13;;;7.05;;
60372;SDS011;46216;52.220;5.134;2022-12-20T12:06:19;8.55;;;6.97;;
60372;SDS011;46216;52.220;5.134;2022-12-20T12:09:07;13.07;;;7.32;;
60372;SDS011;46216;52.220;5.134;2022-12-20T12:11:40;9.38;;;7.90;;
60372;SDS011;46216;52.220;5.134;2022-12-20T12:14:16;11.23;;;8.05;;
60372;SDS011;46216;52.220;5.134;2022-12-20T12:16:52;8.75;;;7.45;;
60372;SDS011;46216;52.220;5.134;2022-12-20T12:19:22;9.20;;;7.53;;
60372;SDS011;46216;52.220;5.134;2022-12-20T12:21:55;10.75;;;7.97;;
60372;SDS011;46216;52.220;5.134;2022-12-20T12:24:28;11.10;;;8.15;;
60372;SDS011;46216;52.220;5.134;2022-12-20T12:26:59;13.70;;;9.10;;
60372;SDS011;46216;52.220;5.134;2022-12-20T12:29:24;8.93;;;8.02;;
60372;SDS011;46216;52.220;5.134;2022-12-20T12:35:10;12.00;;;8.80;;
60372;SDS011;46216;52.220;5.134;2022-12-20T12:45:45;11.02;;;8.95;;
60372;SDS011;46216;52.220;5.134;2022-12-20T12:48:14;12.25;;;8.52;;
60372;SDS011;46216;52.220;5.134;2022-12-20T12:50:54;10.93;;;8.93;;
60372;SDS011;46216;52.220;5.134;2022-12-20T12:53:28;11.13;;;8.68;;
60372;SDS011;46216;52.220;5.134;2022-12-20T12:55:59;11.05;;;8.55;;
60372;SDS011;46216;52.220;5.134;2022-12-20T13:11:46;12.02;;;8.98;;
60372;SDS011;46216;52.220;5.134;2022-12-20T13:16:38;13.60;;;9.25;;
60372;SDS011;46216;52.220;5.134;2022-12-20T13:19:15;11.88;;;9.32;;
60372;SDS011;46216;52.220;5.134;2022-12-20T13:21:45;13.82;;;9.27;;
60372;SDS011;46216;52.220;5.134;2022-12-20T13:38:00;12.25;;;10.05;;
60372;SDS011;46216;52.220;5.134;2022-12-20T13:43:15;12.35;;;10.40;;
60372;SDS011;46216;52.220;5.134;2022-12-20T13:45:55;13.40;;;10.63;;
60372;SDS011;46216;52.220;5.134;2022-12-20T13:51:26;14.15;;;10.68;;
60372;SDS011;46216;52.220;5.134;2022-12-20T13:56:28;14.38;;;11.23;;
60372;SDS011;46216;52.220;5.134;2022-12-20T13:59:06;16.38;;;10.68;;
60372;SDS011;46216;52.220;5.134;2022-12-20T14:01:57;14.00;;;10.13;;
60372;SDS011;46216;52.220;5.134;2022-12-20T14:04:24;15.20;;;11.15;;
60372;SDS011;46216;52.220;5.134;2022-12-20T14:06:53;13.57;;;11.23;;
60372;SDS011;46216;52.220;5.134;2022-12-20T14:09:29;12.07;;;10.77;;
60372;SDS011;46216;52.220;5.134;2022-12-20T14:12:16;14.10;;;11.23;;
60372;SDS011;46216;52.220;5.134;2022-12-20T14:14:42;13.00;;;10.95;;
60372;SDS011;46216;52.220;5.134;2022-12-20T14:17:23;14.50;;;11.43;;
60372;SDS011;46216;52.220;5.134;2022-12-20T14:22:27;13.93;;;12.10;;
60372;SDS011;46216;52.220;5.134;2022-12-20T14:24:53;15.38;;;11.82;;
60372;SDS011;46216;52.220;5.134;2022-12-20T14:27:19;14.60;;;12.63;;
60372;SDS011;46216;52.220;5.134;2022-12-20T14:29:44;15.15;;;12.68;;
60372;SDS011;46216;52.220;5.134;2022-12-20T14:32:19;17.08;;;12.88;;
60372;SDS011;46216;52.220;5.134;2022-12-20T14:34:45;13.77;;;12.30;;
60372;SDS011;46216;52.220;5.134;2022-12-20T14:40:13;14.45;;;12.60;;
60372;SDS011;46216;52.220;5.134;2022-12-20T14:42:42;13.98;;;12.52;;
60372;SDS011;46216;52.220;5.134;2022-12-20T14:47:35;15.75;;;13.68;;
60372;SDS011;46216;52.220;5.134;2022-12-20T14:50:06;14.77;;;13.20;;
60372;SDS011;46216;52.220;5.134;2022-12-20T14:52:42;14.70;;;13.15;;
60372;SDS011;46216;52.220;5.134;2022-12-20T14:55:31;16.90;;;13.30;;
60372;SDS011;46216;52.220;5.134;2022-12-20T14:58:04;16.55;;;14.45;;
60372;SDS011;46216;52.220;5.134;2022-12-20T15:00:54;18.40;;;13.90;;
60372;SDS011;46216;52.220;5.134;2022-12-20T15:03:52;17.55;;;14.10;;
60372;SDS011;46216;52.220;5.134;2022-12-20T15:09:09;16.05;;;14.35;;
60372;SDS011;46216;52.220;5.134;2022-12-20T15:11:36;18.27;;;14.77;;
60372;SDS011;46216;52.220;5.134;2022-12-20T15:14:04;17.20;;;15.38;;
60372;SDS011;46216;52.220;5.134;2022-12-20T15:16:45;16.90;;;15.15;;
60372;SDS011;46216;52.220;5.134;2022-12-20T15:19:17;19.50;;;15.90;;
60372;SDS011;46216;52.220;5.134;2022-12-20T15:21:42;19.95;;;16.02;;
60372;SDS011;46216;52.220;5.134;2022-12-20T15:24:16;19.65;;;15.82;;
60372;SDS011;46216;52.220;5.134;2022-12-20T15:26:45;19.42;;;15.98;;
60372;SDS011;46216;52.220;5.134;2022-12-20T15:29:16;19.00;;;16.45;;
60372;SDS011;46216;52.220;5.134;2022-12-20T15:31:43;21.33;;;16.42;;
60372;SDS011;46216;52.220;5.134;2022-12-20T15:34:13;20.65;;;17.42;;
60372;SDS011;46216;52.220;5.134;2022-12-20T15:36:42;18.98;;;16.00;;
60372;SDS011;46216;52.220;5.134;2022-12-20T15:39:08;20.38;;;16.70;;
60372;SDS011;46216;52.220;5.134;2022-12-20T15:41:36;20.73;;;16.13;;
60372;SDS011;46216;52.220;5.134;2022-12-20T15:44:06;19.75;;;17.17;;
60372;SDS011;46216;52.220;5.134;2022-12-20T15:46:45;21.65;;;17.40;;
60372;SDS011;46216;52.220;5.134;2022-12-20T15:49:12;20.05;;;16.23;;
60372;SDS011;46216;52.220;5.134;2022-12-20T15:51:42;20.55;;;17.10;;
60372;SDS011;46216;52.220;5.134;2022-12-20T15:56:55;19.40;;;16.70;;
60372;SDS011;46216;52.220;5.134;2022-12-20T15:59:22;22.10;;;16.65;;
60372;SDS011;46216;52.220;5.134;2022-12-20T16:01:48;22.35;;;17.42;;
60372;SDS011;46216;52.220;5.134;2022-12-20T16:04:15;24.80;;;17.50;;
60372;SDS011;46216;52.220;5.134;2022-12-20T16:06:47;24.92;;;18.23;;
60372;SDS011;46216;52.220;5.134;2022-12-20T16:09:14;23.13;;;18.15;;
60372;SDS011;46216;52.220;5.134;2022-12-20T16:11:40;26.05;;;18.42;;
60372;SDS011;46216;52.220;5.134;2022-12-20T16:14:09;24.13;;;18.35;;
60372;SDS011;46216;52.220;5.134;2022-12-20T16:16:39;24.67;;;18.23;;
60372;SDS011;46216;52.220;5.134;2022-12-20T16:19:04;25.25;;;18.88;;
60372;SDS011;46216;52.220;5.134;2022-12-20T16:21:31;27.67;;;19.05;;
60372;SDS011;46216;52.220;5.134;2022-12-20T16:23:58;23.95;;;18.42;;
60372;SDS011;46216;52.220;5.134;2022-12-20T16:26:24;25.60;;;18.70;;
60372;SDS011;46216;52.220;5.134;2022-12-20T16:28:51;26.70;;;18.55;;
60372;SDS011;46216;52.220;5.134;2022-12-20T16:31:22;22.70;;;17.63;;
60372;SDS011;46216;52.220;5.134;2022-12-20T16:33:50;23.02;;;18.70;;
60372;SDS011;46216;52.220;5.134;2022-12-20T16:36:16;22.55;;;17.95;;
60372;SDS011;46216;52.220;5.134;2022-12-20T16:38:45;24.05;;;18.38;;
60372;SDS011;46216;52.220;5.134;2022-12-20T16:41:14;22.70;;;18.05;;
60372;SDS011;46216;52.220;5.134;2022-12-20T16:43:41;21.70;;;17.30;;
60372;SDS011;46216;52.220;5.134;2022-12-20T16:46:14;24.10;;;16.95;;